Terminal Aerodrome Forecast
Issued by NWS

Home | Current Version | Previous Version | Text Only | Print | Product List | Glossary On
Versions: 1 2 3 4 5 6 7 8 9 10 11 12 13 14 15 16 17 18 19 20 21 22 23 24 25
000
FTUS43 KDDC 042320
TAFGCK
TAF
KGCK 042320Z 0500/0524 16013KT P6SM SCT080
     FM051300 14010KT 4SM -SHRA BR OVC015
     FM051800 16024KT P6SM OVC015 PROB30 0518/0524 P6SM -RA OVC015=

USA.gov is the U.S. government's official web portal to all federal, state and local government web resources and services.